Time;durP1;ratioP1;P1;durP2;ratioP2;P2;SDS_P1;SDS_P2;PMS_P1;PMS_P2;Temp;Humidity;BMP_temperature;BMP_pressure;BME280_temperature;BME280_humidity;BME280_pressure;Samples;Min_cycle;Max_cycle;Signal;HPM_P1;HPM_P2
2023/04/25 00:01:21;;;;;;;16.90;3.33;;;6.70;99.90;;;;;;4858224;29;20488;-91
2023/04/25 00:03:47;;;;;;;18.50;3.53;;;6.70;99.90;;;;;;4858304;29;20499;-90
2023/04/25 00:06:13;;;;;;;13.48;3.42;;;6.70;99.90;;;;;;4844018;29;20779;-90
2023/04/25 00:08:39;;;;;;;16.10;3.63;;;6.70;99.90;;;;;;4842410;29;20485;-91
2023/04/25 00:11:05;;;;;;;14.70;2.67;;;6.60;99.90;;;;;;4843909;29;20469;-91
2023/04/25 00:13:31;;;;;;;12.77;2.67;;;6.60;99.90;;;;;;4857821;29;20927;-92
2023/04/25 00:15:57;;;;;;;14.90;3.00;;;6.60;99.90;;;;;;4843849;29;20513;-90
2023/04/25 00:18:23;;;;;;;12.82;2.53;;;6.50;99.90;;;;;;4842274;29;20416;-90
2023/04/25 00:20:49;;;;;;;15.48;2.72;;;6.40;99.90;;;;;;4843037;29;20428;-91
2023/04/25 00:23:18;;;;;;;15.43;2.95;;;6.40;99.90;;;;;;4841993;29;20421;-89
2023/04/25 00:25:52;;;;;;;14.60;2.28;;;6.50;99.90;;;;;;4841690;29;20476;-91
2023/04/25 00:28:18;;;;;;;18.70;2.80;;;6.30;99.90;;;;;;4842965;29;20425;-91
2023/04/25 00:30:44;;;;;;;14.43;2.33;;;6.30;99.90;;;;;;4840586;29;20423;-92
2023/04/25 00:33:10;;;;;;;16.77;2.22;;;6.30;99.90;;;;;;4843914;29;20821;-90
2023/04/25 00:35:36;;;;;;;16.80;2.70;;;6.20;99.90;;;;;;4841409;29;20736;-90
2023/04/25 00:38:02;;;;;;;13.30;1.95;;;6.20;99.90;;;;;;4858854;29;20917;-90
2023/04/25 00:40:28;;;;;;;14.02;1.95;;;6.30;99.90;;;;;;4842987;29;20427;-92
2023/04/25 00:42:54;;;;;;;17.80;2.50;;;6.30;99.90;;;;;;4842756;29;20412;-91
2023/04/25 00:45:20;;;;;;;14.63;2.53;;;6.30;99.90;;;;;;4843077;29;20445;-92
2023/04/25 00:47:47;;;;;;;14.60;2.10;;;6.20;99.90;;;;;;4841572;29;20500;-92
2023/04/25 00:50:13;;;;;;;16.30;2.67;;;6.20;99.90;;;;;;4843371;29;20941;-90
2023/04/25 00:52:44;;;;;;;14.52;2.72;;;6.20;99.90;;;;;;4841476;29;20424;-90
2023/04/25 00:55:12;;;;;;;15.88;2.75;;;6.20;99.90;;;;;;4843033;29;20435;-91
2023/04/25 00:57:38;;;;;;;17.27;3.22;;;6.20;99.90;;;;;;4857750;29;20504;-90
2023/04/25 01:00:09;;;;;;;14.65;2.40;;;6.50;99.90;;;;;;4858111;29;20417;-91
2023/04/25 01:02:35;;;;;;;15.88;2.67;;;6.30;99.90;;;;;;4842878;29;20517;-90
2023/04/25 01:05:02;;;;;;;18.10;2.67;;;6.30;99.90;;;;;;4840907;29;20423;-91
2023/04/25 01:07:28;;;;;;;19.45;2.67;;;6.30;99.90;;;;;;4842472;29;20424;-91
2023/04/25 01:09:54;;;;;;;14.45;2.25;;;6.30;99.90;;;;;;4840602;29;20417;-91
2023/04/25 01:12:20;;;;;;;17.02;2.92;;;6.30;99.90;;;;;;4843037;29;20425;-91
2023/04/25 01:14:46;;;;;;;18.40;2.58;;;6.30;99.90;;;;;;4841992;29;20810;-91
2023/04/25 01:17:13;;;;;;;15.60;2.40;;;6.30;99.90;;;;;;4842085;29;20419;-91
2023/04/25 01:19:39;;;;;;;17.40;3.00;;;6.30;99.90;;;;;;4857844;29;20427;-89
2023/04/25 01:22:05;;;;;;;17.00;2.40;;;6.30;99.90;;;;;;4841334;29;20492;-90
2023/04/25 01:24:34;;;;;;;14.43;2.50;;;6.30;99.90;;;;;;4842679;29;21214;-90
2023/04/25 01:27:03;;;;;;;15.60;2.83;;;6.30;99.90;;;;;;4840697;29;20475;-91
2023/04/25 01:29:29;;;;;;;16.03;2.27;;;6.30;99.90;;;;;;4842636;29;20543;-90
2023/04/25 01:31:55;;;;;;;12.15;1.83;;;6.30;99.90;;;;;;4856817;29;20732;-90
2023/04/25 01:34:21;;;;;;;15.27;2.28;;;6.30;99.90;;;;;;4842195;29;20417;-90
2023/04/25 01:36:49;;;;;;;15.13;2.40;;;6.40;99.90;;;;;;4841880;29;20443;-89
2023/04/25 01:39:15;;;;;;;15.48;2.42;;;6.40;99.90;;;;;;4841326;29;20409;-89
2023/04/25 01:41:42;;;;;;;12.70;1.73;;;6.50;99.90;;;;;;4842561;29;20479;-89
2023/04/25 01:44:07;;;;;;;14.95;2.28;;;6.40;99.90;;;;;;4840794;29;20452;-89
2023/04/25 01:46:34;;;;;;;16.17;2.53;;;6.50;99.90;;;;;;4842505;29;20874;-90
2023/04/25 01:49:00;;;;;;;14.63;1.85;;;6.50;99.90;;;;;;4855654;29;20416;-91
2023/04/25 01:51:26;;;;;;;13.18;1.38;;;6.40;99.90;;;;;;4842319;29;20461;-91
2023/04/25 01:53:52;;;;;;;12.07;1.42;;;6.50;99.90;;;;;;4856358;29;20480;-92
2023/04/25 01:56:18;;;;;;;11.88;1.52;;;6.40;99.90;;;;;;4841733;29;20910;-89
2023/04/25 01:58:44;;;;;;;10.98;1.40;;;6.40;99.90;;;;;;4841269;29;20445;-90
2023/04/25 02:01:12;;;;;;;13.37;1.60;;;6.40;99.90;;;;;;4839313;29;22726;-91
2023/04/25 02:03:38;;;;;;;12.13;1.57;;;6.30;99.90;;;;;;4841455;29;21142;-90
2023/04/25 02:06:04;;;;;;;9.83;1.43;;;6.30;99.90;;;;;;4838935;29;20445;-91
2023/04/25 02:08:30;;;;;;;9.37;1.40;;;6.30;99.90;;;;;;4841904;29;20464;-90
2023/04/25 02:10:55;;;;;;;11.98;1.20;;;6.40;99.90;;;;;;4837499;29;20422;-91
2023/04/25 02:13:21;;;;;;;11.03;1.10;;;6.30;99.90;;;;;;4838749;29;20992;-90
2023/04/25 02:15:47;;;;;;;10.90;1.48;;;6.30;99.90;;;;;;4853415;29;20426;-89
2023/04/25 02:18:12;;;;;;;14.82;1.90;;;6.30;99.90;;;;;;4836893;29;20423;-91
2023/04/25 02:20:38;;;;;;;12.63;1.75;;;6.50;99.90;;;;;;4838926;29;20419;-90
2023/04/25 02:23:04;;;;;;;13.13;1.73;;;6.20;99.90;;;;;;4837435;29;20462;-90
2023/04/25 02:25:30;;;;;;;11.67;1.77;;;6.20;99.90;;;;;;4839260;29;20535;-91
2023/04/25 02:27:55;;;;;;;12.38;1.70;;;6.20;99.90;;;;;;4836728;29;20422;-91
2023/04/25 02:30:21;;;;;;;14.30;2.30;;;6.10;99.90;;;;;;4838962;29;20455;-92
2023/04/25 02:32:47;;;;;;;13.80;1.83;;;6.10;99.90;;;;;;4837540;29;20431;-89
2023/04/25 02:35:12;;;;;;;8.85;0.80;;;5.90;99.90;;;;;;4838273;29;20459;-91
2023/04/25 02:37:40;;;;;;;3.38;0.30;;;5.40;99.90;;;;;;4823138;29;20414;-91
2023/04/25 02:40:06;;;;;;;6.60;0.50;;;5.70;99.90;;;;;;4837506;29;20418;-91
2023/04/25 02:42:32;;;;;;;5.97;0.55;;;5.50;99.90;;;;;;4824262;29;20428;-89
2023/04/25 02:44:57;;;;;;;8.25;0.85;;;5.50;99.90;;;;;;4821486;29;20418;-91
2023/04/25 02:47:23;;;;;;;6.53;0.67;;;5.50;99.90;;;;;;4839056;29;20963;-91
2023/04/25 02:49:49;;;;;;;6.70;0.70;;;5.50;99.90;;;;;;4837448;29;21017;-89
2023/04/25 02:52:14;;;;;;;5.80;0.60;;;5.50;99.90;;;;;;4853791;29;20475;-91
2023/04/25 02:54:40;;;;;;;6.40;0.70;;;5.50;99.90;;;;;;4838201;29;20418;-89
2023/04/25 02:57:07;;;;;;;8.30;0.80;;;5.50;99.90;;;;;;4837689;29;20517;-90
2023/04/25 02:59:33;;;;;;;7.93;1.30;;;5.50;99.90;;;;;;4838200;29;20414;-91
2023/04/25 03:01:58;;;;;;;8.13;1.02;;;5.50;99.90;;;;;;4836484;29;20442;-91
2023/04/25 03:04:24;;;;;;;8.55;0.95;;;5.50;99.90;;;;;;4838766;29;20531;-90
2023/04/25 03:06:50;;;;;;;7.22;1.08;;;5.50;99.90;;;;;;4836442;29;20815;-92
2023/04/25 03:09:16;;;;;;;9.80;1.20;;;5.50;99.90;;;;;;4839708;29;20474;-91
2023/04/25 03:11:43;;;;;;;12.27;1.60;;;5.50;99.90;;;;;;4840115;29;20428;-90
2023/04/25 03:14:09;;;;;;;9.30;1.35;;;5.50;99.90;;;;;;4856231;29;20435;-92
2023/04/25 03:16:34;;;;;;;5.63;0.73;;;5.50;99.90;;;;;;4841097;29;20930;-90
2023/04/25 03:19:00;;;;;;;8.30;1.23;;;5.50;99.90;;;;;;4840381;29;20420;-91
2023/04/25 03:21:26;;;;;;;10.25;1.15;;;5.70;99.90;;;;;;4841589;29;20421;-91
2023/04/25 03:23:52;;;;;;;10.75;1.25;;;5.60;99.90;;;;;;4839500;29;20419;-92
2023/04/25 03:26:17;;;;;;;10.70;1.10;;;5.60;99.90;;;;;;4841563;29;20463;-90
2023/04/25 03:28:43;;;;;;;10.83;0.90;;;5.60;99.90;;;;;;4839583;29;20636;-91
2023/04/25 03:31:08;;;;;;;12.57;1.40;;;5.60;99.90;;;;;;4843820;29;20519;-91
2023/04/25 03:33:34;;;;;;;10.05;1.15;;;5.50;99.90;;;;;;4844134;29;20473;-90
2023/04/25 03:36:00;;;;;;;10.45;1.23;;;5.60;99.90;;;;;;4859124;29;20432;-90
2023/04/25 03:38:26;;;;;;;10.43;1.20;;;5.50;99.90;;;;;;4859968;29;20516;-90
2023/04/25 03:40:51;;;;;;;12.05;1.02;;;5.70;99.90;;;;;;4843070;29;20721;-91
2023/04/25 03:43:17;;;;;;;10.60;1.63;;;5.70;99.90;;;;;;4860070;29;21210;-91
2023/04/25 03:45:43;;;;;;;15.10;1.45;;;5.80;99.90;;;;;;4842980;29;20858;-90
2023/04/25 03:48:08;;;;;;;12.70;1.60;;;5.70;99.90;;;;;;4844296;29;20482;-92
2023/04/25 03:50:34;;;;;;;11.77;1.70;;;5.30;99.90;;;;;;4843333;29;20504;-92
2023/04/25 03:53:00;;;;;;;13.57;1.63;;;5.20;99.90;;;;;;4859332;29;20420;-92
2023/04/25 03:55:26;;;;;;;17.38;2.25;;;5.10;99.90;;;;;;4859639;29;20550;-91
2023/04/25 03:57:51;;;;;;;12.60;1.83;;;4.90;99.90;;;;;;4858322;29;20424;-91
2023/04/25 04:00:17;;;;;;;12.83;1.73;;;4.80;99.90;;;;;;4844693;29;20412;-92
2023/04/25 04:02:43;;;;;;;14.00;1.87;;;4.70;99.90;;;;;;4842716;29;20489;-91
2023/04/25 04:05:09;;;;;;;12.90;1.80;;;4.60;99.90;;;;;;4844237;29;20405;-90
2023/04/25 04:07:39;;;;;;;12.48;1.88;;;4.50;99.90;;;;;;4857741;29;20428;-92
2023/04/25 04:10:09;;;;;;;12.13;1.40;;;4.40;99.90;;;;;;4844007;29;20517;-91
2023/04/25 04:12:34;;;;;;;12.13;1.20;;;4.30;99.90;;;;;;4858846;29;20794;-90
2023/04/25 04:15:01;;;;;;;11.73;1.35;;;4.30;99.90;;;;;;4843047;29;20432;-91
2023/04/25 04:17:26;;;;;;;12.68;1.52;;;4.20;99.90;;;;;;4859526;29;20420;-90
2023/04/25 04:19:52;;;;;;;13.30;1.13;;;4.20;99.90;;;;;;4837528;29;20442;-90
2023/04/25 04:22:17;;;;;;;11.10;1.70;;;4.20;99.90;;;;;;4830363;29;20503;-91
2023/04/25 04:24:46;;;;;;;13.00;1.40;;;4.10;99.90;;;;;;4845253;29;20457;-90
2023/04/25 04:27:12;;;;;;;16.95;2.03;;;4.10;99.90;;;;;;4833110;29;20439;-92
2023/04/25 04:29:38;;;;;;;15.25;1.58;;;4.10;99.90;;;;;;4825306;29;20482;-91
2023/04/25 04:32:04;;;;;;;11.00;1.65;;;4.10;99.90;;;;;;4824922;29;20426;-91
2023/04/25 04:34:30;;;;;;;14.80;2.38;;;4.10;99.90;;;;;;4824119;29;20442;-90
2023/04/25 04:36:57;;;;;;;15.13;2.13;;;4.10;99.90;;;;;;4856910;29;20429;-93
2023/04/25 04:39:22;;;;;;;15.10;2.03;;;4.10;99.90;;;;;;4843796;29;20503;-90
2023/04/25 04:41:48;;;;;;;15.85;2.00;;;4.20;99.90;;;;;;4840639;29;20471;-90
2023/04/25 04:44:14;;;;;;;13.07;2.10;;;4.30;99.90;;;;;;4843654;29;20409;-90
2023/04/25 04:46:41;;;;;;;12.68;1.67;;;4.30;99.90;;;;;;4841716;29;20448;-92
2023/04/25 04:49:09;;;;;;;12.68;1.92;;;4.40;99.90;;;;;;4843453;29;20416;-91
2023/04/25 04:51:34;;;;;;;11.65;1.48;;;4.50;99.90;;;;;;4842801;29;20419;-90
2023/04/25 04:54:02;;;;;;;14.75;1.95;;;4.50;99.90;;;;;;4841914;29;20567;-91
2023/04/25 04:56:30;;;;;;;16.40;1.95;;;4.60;99.90;;;;;;4857796;29;20826;-93
2023/04/25 04:58:57;;;;;;;12.95;1.58;;;4.60;99.90;;;;;;4868119;29;20919;-92
2023/04/25 05:01:23;;;;;;;17.02;2.13;;;4.70;99.90;;;;;;4840940;29;20418;-90
2023/04/25 05:03:49;;;;;;;13.32;1.73;;;4.80;99.90;;;;;;4823117;29;20434;-92
2023/04/25 05:06:14;;;;;;;10.80;1.35;;;4.80;99.90;;;;;;4824904;29;20464;-91
2023/04/25 05:08:40;;;;;;;14.63;1.90;;;4.90;99.90;;;;;;4823660;29;20423;-90
2023/04/25 05:11:05;;;;;;;13.60;1.80;;;5.00;99.90;;;;;;4823405;29;20441;-90
2023/04/25 05:13:31;;;;;;;13.10;1.50;;;5.10;99.90;;;;;;4824918;29;20773;-91
2023/04/25 05:15:57;;;;;;;9.17;1.00;;;5.30;99.90;;;;;;4823505;29;20496;-90
2023/04/25 05:18:22;;;;;;;12.97;1.37;;;5.40;99.90;;;;;;4824908;29;20513;-90
2023/04/25 05:20:48;;;;;;;11.27;2.00;;;5.60;99.90;;;;;;4822877;29;20714;-90
2023/04/25 05:23:13;;;;;;;10.07;1.10;;;5.70;99.90;;;;;;4825083;29;20434;-90
2023/04/25 05:25:39;;;;;;;10.02;1.27;;;5.90;99.90;;;;;;4823036;29;20438;-90
2023/04/25 05:28:05;;;;;;;8.30;1.30;;;6.00;99.90;;;;;;4824709;29;20830;-90
2023/04/25 05:30:31;;;;;;;10.02;1.40;;;6.10;99.90;;;;;;4823514;29;20946;-90
2023/04/25 05:32:56;;;;;;;7.15;0.80;;;6.30;99.90;;;;;;4823668;29;20435;-92
2023/04/25 05:35:22;;;;;;;12.30;1.10;;;6.20;99.90;;;;;;4824535;29;20434;-91
2023/04/25 05:37:47;;;;;;;10.38;0.90;;;6.20;99.90;;;;;;4822319;29;20984;-90
2023/04/25 05:40:13;;;;;;;8.90;1.05;;;6.20;99.90;;;;;;4839545;29;20507;-90
2023/04/25 05:42:39;;;;;;;7.87;0.93;;;6.60;99.90;;;;;;4822519;29;20485;-90
2023/04/25 05:45:05;;;;;;;9.30;0.80;;;6.40;99.90;;;;;;4824299;29;20513;-90
2023/04/25 05:47:31;;;;;;;8.30;1.20;;;6.50;99.90;;;;;;4837103;29;20450;-90
2023/04/25 05:49:56;;;;;;;7.88;0.90;;;6.70;99.90;;;;;;4838838;29;20461;-91
2023/04/25 05:52:22;;;;;;;9.15;1.08;;;6.70;99.90;;;;;;4823192;29;20923;-91
2023/04/25 05:54:48;;;;;;;10.53;1.30;;;6.60;99.90;;;;;;4822550;29;20431;-92
2023/04/25 05:57:24;;;;;;;6.67;0.67;;;6.40;99.90;;;;;;4823924;29;20418;-91
2023/04/25 05:59:50;;;;;;;5.13;0.50;;;6.20;99.90;;;;;;4837139;29;20857;-90
2023/04/25 06:02:17;;;;;;;7.18;0.63;;;6.10;99.90;;;;;;4841407;29;20427;-91
2023/04/25 06:04:42;;;;;;;3.67;0.40;;;6.10;99.90;;;;;;4840558;29;20513;-92
2023/04/25 06:07:08;;;;;;;4.13;0.30;;;6.10;99.90;;;;;;4857228;29;20441;-90
2023/04/25 06:09:34;;;;;;;5.65;0.40;;;6.10;99.90;;;;;;4856395;29;20451;-91
2023/04/25 06:12:00;;;;;;;3.53;0.45;;;6.20;99.90;;;;;;4841166;29;20421;-90
2023/04/25 06:14:26;;;;;;;4.18;0.47;;;6.20;99.90;;;;;;4851136;29;20421;-90
2023/04/25 06:16:52;;;;;;;5.38;0.45;;;6.30;99.90;;;;;;4844887;29;20417;-91
2023/04/25 06:19:18;;;;;;;6.32;0.60;;;6.20;99.90;;;;;;4858054;29;20437;-90
2023/04/25 06:21:44;;;;;;;6.30;0.50;;;6.40;99.90;;;;;;4839433;29;20464;-90
2023/04/25 06:24:10;;;;;;;6.40;0.63;;;6.70;99.90;;;;;;4839109;29;20418;-90
2023/04/25 06:26:35;;;;;;;6.97;0.50;;;6.70;99.90;;;;;;4822819;29;20467;-88
2023/04/25 06:29:01;;;;;;;7.10;0.50;;;6.90;99.90;;;;;;4823327;29;20946;-90
2023/04/25 06:31:28;;;;;;;7.30;0.50;;;7.10;99.90;;;;;;4823631;29;20777;-91
2023/04/25 06:33:54;;;;;;;5.25;0.30;;;7.00;99.90;;;;;;4822339;29;20464;-90
2023/04/25 06:36:24;;;;;;;5.45;0.45;;;7.00;99.90;;;;;;4823460;29;20422;-90
2023/04/25 06:38:54;;;;;;;7.05;0.55;;;7.00;99.90;;;;;;4821388;29;20414;-91
2023/04/25 06:41:20;;;;;;;8.05;0.50;;;7.20;99.90;;;;;;4824203;29;20757;-90
2023/04/25 06:43:46;;;;;;;6.07;0.75;;;7.30;99.90;;;;;;4821768;29;20958;-92
2023/04/25 06:46:12;;;;;;;6.30;0.50;;;7.40;99.90;;;;;;4823855;29;20449;-92
2023/04/25 06:48:38;;;;;;;7.28;0.65;;;7.70;99.90;;;;;;4823056;29;20423;-91
2023/04/25 06:51:04;;;;;;;6.50;0.60;;;7.90;99.90;;;;;;4822574;29;20494;-93
2023/04/25 06:53:29;;;;;;;8.53;0.90;;;8.10;99.90;;;;;;4823246;29;20414;-90
2023/04/25 06:55:55;;;;;;;6.90;0.60;;;8.30;99.90;;;;;;4821864;29;21030;-91
2023/04/25 06:58:20;;;;;;;8.85;0.98;;;8.60;99.90;;;;;;4824059;29;20498;-91
2023/04/25 07:00:46;;;;;;;8.37;0.77;;;8.30;99.90;;;;;;4836697;29;20422;-93
2023/04/25 07:03:12;;;;;;;5.90;0.40;;;7.70;99.90;;;;;;4838732;29;20426;-94
2023/04/25 07:05:37;;;;;;;4.05;0.45;;;7.40;99.90;;;;;;4824000;29;20446;-92
2023/04/25 07:08:03;;;;;;;5.03;0.70;;;7.40;99.90;;;;;;4826627;29;20418;-93
2023/04/25 07:10:29;;;;;;;4.17;0.40;;;7.20;99.90;;;;;;4826453;29;20434;-90
2023/04/25 07:12:55;;;;;;;5.25;0.45;;;7.10;99.90;;;;;;4825434;29;20419;-91
2023/04/25 07:15:20;;;;;;;4.90;0.40;;;7.00;99.90;;;;;;4826950;29;20769;-91
2023/04/25 07:17:46;;;;;;;3.90;0.40;;;7.00;99.90;;;;;;4824822;29;20414;-93
2023/04/25 07:20:12;;;;;;;4.03;0.30;;;7.00;99.90;;;;;;4827202;29;20512;-90
2023/04/25 07:22:37;;;;;;;3.22;0.30;;;7.00;99.90;;;;;;4825246;29;20479;-92
2023/04/25 07:25:04;;;;;;;5.30;0.43;;;7.00;99.90;;;;;;4841758;29;20435;-91
2023/04/25 07:27:30;;;;;;;4.72;0.50;;;7.10;99.90;;;;;;4825917;29;20430;-90
2023/04/25 07:29:55;;;;;;;5.50;0.82;;;7.50;99.90;;;;;;4841116;29;20942;-92
2023/04/25 07:32:21;;;;;;;6.82;0.50;;;7.20;99.90;;;;;;4826480;29;20426;-90
2023/04/25 07:34:47;;;;;;;5.15;1.20;;;7.30;99.90;;;;;;4824587;29;20453;-92
2023/04/25 07:37:14;;;;;;;5.82;0.50;;;7.20;99.90;;;;;;4841801;29;20522;-90
2023/04/25 07:39:39;;;;;;;7.47;0.55;;;7.20;99.90;;;;;;4824151;29;20418;-90
2023/04/25 07:42:07;;;;;;;4.97;0.40;;;7.40;99.90;;;;;;4841948;29;20419;-91
2023/04/25 07:44:38;;;;;;;6.82;0.60;;;7.50;99.90;;;;;;4824737;29;20425;-91
2023/04/25 07:47:08;;;;;;;5.78;0.60;;;7.60;99.90;;;;;;4825893;29;20789;-91
2023/04/25 07:49:37;;;;;;;4.85;0.50;;;7.80;99.90;;;;;;4823326;29;20418;-91
2023/04/25 07:52:04;;;;;;;8.63;1.02;;;8.00;99.90;;;;;;4824579;29;20433;-92
2023/04/25 07:54:29;;;;;;;8.00;0.60;;;8.00;99.90;;;;;;4826470;29;20425;-90
2023/04/25 07:56:55;;;;;;;7.20;0.55;;;8.10;99.90;;;;;;4824120;29;20426;-91
2023/04/25 07:59:21;;;;;;;6.22;0.63;;;8.30;99.90;;;;;;4825987;29;20434;-91
2023/04/25 08:01:47;;;;;;;6.57;0.50;;;8.60;99.90;;;;;;4824545;29;20777;-92
2023/04/25 08:04:13;;;;;;;5.63;0.50;;;9.00;99.90;;;;;;4826021;29;20920;-92
2023/04/25 08:06:40;;;;;;;4.17;0.40;;;9.20;93.60;;;;;;4825315;29;20550;-90
2023/04/25 08:09:06;;;;;;;6.07;0.40;;;9.20;91.30;;;;;;4839834;29;20943;-91
2023/04/25 08:11:31;;;;;;;6.00;0.60;;;9.00;81.30;;;;;;4825567;29;20442;-92
2023/04/25 08:13:57;;;;;;;6.00;0.65;;;8.90;94.90;;;;;;4823874;29;20900;-93
2023/04/25 08:16:22;;;;;;;6.40;0.50;;;8.50;99.00;;;;;;4824980;29;20454;-91
2023/04/25 08:18:49;;;;;;;6.97;0.85;;;7.90;99.90;;;;;;4824012;29;20829;-90
2023/04/25 08:21:15;;;;;;;4.97;0.60;;;7.30;99.90;;;;;;4825365;29;20418;-91
2023/04/25 08:23:41;;;;;;;6.97;0.60;;;7.20;99.90;;;;;;4824457;29;20435;-90
2023/04/25 08:26:07;;;;;;;4.87;0.80;;;7.50;99.90;;;;;;4840151;29;20473;-92
2023/04/25 08:28:32;;;;;;;6.47;0.50;;;7.30;99.90;;;;;;4825361;29;20411;-92
2023/04/25 08:30:58;;;;;;;5.10;0.60;;;7.00;99.90;;;;;;4823862;29;20494;-91
2023/04/25 08:33:24;;;;;;;4.15;0.22;;;7.10;99.90;;;;;;4825669;29;20434;-91
2023/04/25 08:35:49;;;;;;;3.65;0.30;;;7.20;99.90;;;;;;4829377;29;20427;-89
2023/04/25 08:38:15;;;;;;;5.43;0.37;;;7.50;99.90;;;;;;4859118;29;20428;-91
2023/04/25 08:40:43;;;;;;;4.67;0.43;;;8.00;99.90;;;;;;4833318;29;20426;-91
2023/04/25 08:43:11;;;;;;;6.18;0.52;;;8.10;99.90;;;;;;4848283;29;20509;-91
2023/04/25 08:45:42;;;;;;;7.03;0.50;;;8.50;99.90;;;;;;4836068;29;20441;-90
2023/04/25 08:48:12;;;;;;;6.72;0.70;;;9.10;99.90;;;;;;4829119;29;20954;-89
2023/04/25 08:50:54;;;;;;;8.25;0.50;;;9.10;99.90;;;;;;4837559;29;21303;-90
2023/04/25 08:53:24;;;;;;;11.23;0.90;;;9.20;99.90;;;;;;4835888;29;20430;-90
2023/04/25 08:55:52;;;;;;;8.75;0.80;;;9.50;99.90;;;;;;4827797;29;20419;-90
2023/04/25 08:58:18;;;;;;;8.50;0.70;;;9.60;97.20;;;;;;4835027;29;20776;-91
2023/04/25 09:00:46;;;;;;;10.85;0.90;;;9.80;99.90;;;;;;4851919;29;20570;-91
2023/04/25 09:03:12;;;;;;;10.00;1.55;;;10.00;99.90;;;;;;4843331;29;20443;-90
2023/04/25 09:05:40;;;;;;;9.07;1.20;;;10.20;93.90;;;;;;4841559;29;20453;-91
2023/04/25 09:08:05;;;;;;;7.60;0.75;;;10.10;99.90;;;;;;4843457;29;20417;-92
2023/04/25 09:10:31;;;;;;;8.38;0.77;;;9.70;99.50;;;;;;4840950;29;20515;-90
2023/04/25 09:13:12;;;;;;;8.50;0.75;;;9.30;98.60;;;;;;4843270;29;20943;-90
2023/04/25 09:15:52;;;;;;;6.90;0.50;;;8.50;99.90;;;;;;4842008;29;20497;-90
2023/04/25 09:18:25;;;;;;;6.47;0.50;;;8.50;99.50;;;;;;4857146;29;20896;-92
2023/04/25 09:20:52;;;;;;;8.25;1.10;;;8.70;89.90;;;;;;4843061;29;20432;-90
2023/04/25 09:23:21;;;;;;;8.73;0.80;;;9.00;99.90;;;;;;4856374;29;20428;-92
2023/04/25 09:25:48;;;;;;;6.57;0.63;;;9.20;88.50;;;;;;4858698;29;20807;-91
2023/04/25 09:28:14;;;;;;;5.60;0.68;;;9.40;84.30;;;;;;4856229;29;20417;-90
2023/04/25 09:30:40;;;;;;;6.28;0.60;;;9.50;75.00;;;;;;4858340;29;20428;-92
2023/04/25 09:33:07;;;;;;;7.23;0.97;;;9.60;70.10;;;;;;4842137;29;20413;-90
2023/04/25 09:35:43;;;;;;;8.05;0.75;;;9.70;75.10;;;;;;4857243;29;20496;-91
2023/04/25 09:38:13;;;;;;;6.43;0.60;;;10.00;74.80;;;;;;4842445;29;20435;-91
2023/04/25 09:40:40;;;;;;;7.45;0.57;;;10.10;64.70;;;;;;4855685;29;20437;-90
2023/04/25 09:43:10;;;;;;;6.72;0.60;;;9.80;65.80;;;;;;4858109;29;20417;-89
2023/04/25 09:45:46;;;;;;;7.03;0.70;;;10.40;75.20;;;;;;4855682;29;20447;-91
2023/04/25 09:48:18;;;;;;;9.23;0.80;;;10.10;85.80;;;;;;4842461;29;20503;-90
2023/04/25 09:50:44;;;;;;;5.68;0.60;;;10.00;68.20;;;;;;4842566;29;20886;-91
2023/04/25 09:53:09;;;;;;;5.87;0.60;;;9.90;69.10;;;;;;4840756;29;20413;-91
2023/04/25 09:55:36;;;;;;;6.53;0.50;;;9.80;65.90;;;;;;4857935;29;20842;-90
2023/04/25 09:58:07;;;;;;;6.63;0.60;;;9.90;76.50;;;;;;4840339;29;21033;-91
2023/04/25 10:00:35;;;;;;;6.82;0.32;;;10.00;71.20;;;;;;4842585;29;20469;-92
2023/04/25 10:03:05;;;;;;;8.07;0.60;;;10.30;70.00;;;;;;4840937;29;20413;-92
2023/04/25 10:05:35;;;;;;;8.55;0.70;;;9.90;79.70;;;;;;4841646;29;20981;-91
2023/04/25 10:08:04;;;;;;;8.77;0.93;;;9.50;91.70;;;;;;4857044;29;20949;-93
2023/04/25 10:10:35;;;;;;;10.75;1.10;;;8.90;99.90;;;;;;4855941;29;20412;-92
2023/04/25 10:13:05;;;;;;;8.50;0.90;;;8.70;99.90;;;;;;4842623;29;20428;-91
2023/04/25 10:15:35;;;;;;;7.87;1.27;;;8.70;99.90;;;;;;4840446;29;20417;-92
2023/04/25 10:18:01;;;;;;;8.27;0.75;;;8.90;99.90;;;;;;4842369;29;21012;-93
2023/04/25 10:20:27;;;;;;;7.45;0.82;;;9.40;99.90;;;;;;4855908;29;20424;-92
2023/04/25 10:22:56;;;;;;;8.40;0.68;;;9.40;99.90;;;;;;4841269;29;20495;-91
2023/04/25 10:25:23;;;;;;;6.38;0.50;;;9.50;99.90;;;;;;4857604;29;20431;-90
2023/04/25 10:27:51;;;;;;;7.17;0.70;;;9.50;99.90;;;;;;4856028;29;20901;-93
2023/04/25 10:30:18;;;;;;;6.90;0.75;;;9.30;99.90;;;;;;4857895;29;20425;-93
2023/04/25 10:32:45;;;;;;;6.22;0.57;;;9.20;99.90;;;;;;4840472;29;20818;-92
2023/04/25 10:35:17;;;;;;;12.47;0.93;;;9.20;99.90;;;;;;4842628;29;20417;-90
2023/04/25 10:38:19;;;;;;;8.98;0.70;;;8.40;99.90;;;;;;4840739;29;20428;-89
2023/04/25 10:41:03;;;;;;;7.88;1.10;;;8.30;99.90;;;;;;4766381;30;20437;-90
2023/04/25 10:43:45;;;;;;;9.13;0.98;;;8.40;99.90;;;;;;4839111;29;20440;-91
2023/04/25 10:46:16;;;;;;;5.75;0.50;;;8.30;99.90;;;;;;4843419;29;20452;-90
2023/04/25 10:48:53;;;;;;;6.55;0.80;;;8.40;99.90;;;;;;4844339;29;20429;-93
2023/04/25 10:51:33;;;;;;;6.35;0.73;;;8.90;99.90;;;;;;4859766;29;20992;-90
2023/04/25 10:54:02;;;;;;;5.30;0.60;;;9.50;99.90;;;;;;4857687;29;20509;-89
2023/04/25 10:56:32;;;;;;;3.97;0.57;;;9.90;98.70;;;;;;4844398;29;20432;-91
2023/04/25 10:59:18;;;;;;;6.05;0.70;;;10.30;74.30;;;;;;4858011;29;20433;-90
2023/04/25 11:01:47;;;;;;;6.65;0.50;;;10.30;76.50;;;;;;4844482;29;20872;-91
2023/04/25 11:04:30;;;;;;;4.57;0.50;;;10.50;73.50;;;;;;4840442;29;20440;-91
2023/04/25 11:07:06;;;;;;;8.97;0.97;;;11.10;75.40;;;;;;4856731;29;20488;-92
2023/04/25 11:09:38;;;;;;;5.03;0.52;;;10.40;79.00;;;;;;4844747;29;20451;-92
2023/04/25 11:12:04;;;;;;;5.25;0.50;;;10.00;76.40;;;;;;4866279;29;20428;-90
2023/04/25 11:14:30;;;;;;;2.38;0.40;;;9.90;91.10;;;;;;4850502;29;20986;-93
2023/04/25 11:16:57;;;;;;;5.80;0.50;;;10.30;90.60;;;;;;4855059;29;20424;-91
2023/04/25 11:19:24;;;;;;;4.20;0.30;;;10.40;92.30;;;;;;4848787;29;20933;-92
2023/04/25 11:21:54;;;;;;;6.85;0.60;;;10.80;92.60;;;;;;4849035;29;20409;-91
2023/04/25 11:24:25;;;;;;;6.38;0.50;;;11.20;82.50;;;;;;4862198;29;20451;-91
2023/04/25 11:26:50;;;;;;;6.28;0.60;;;11.40;77.20;;;;;;4864294;29;20447;-91
2023/04/25 11:29:16;;;;;;;6.80;0.60;;;11.50;69.10;;;;;;4863496;29;20421;-92
2023/04/25 11:31:47;;;;;;;5.40;0.70;;;11.70;73.90;;;;;;4849251;29;20424;-92
2023/04/25 11:34:17;;;;;;;2.60;0.28;;;11.70;69.20;;;;;;4862172;29;20968;-91
2023/04/25 11:36:45;;;;;;;2.45;0.20;;;11.30;66.60;;;;;;4844990;29;20938;-93
2023/04/25 11:39:11;;;;;;;3.83;0.30;;;10.60;66.60;;;;;;4864122;29;20416;-90
2023/04/25 11:41:41;;;;;;;1.50;0.20;;;10.10;68.00;;;;;;4852903;29;20423;-91
2023/04/25 11:44:07;;;;;;;2.28;0.30;;;9.60;73.20;;;;;;4862642;29;21035;-91
2023/04/25 11:46:36;;;;;;;3.83;0.50;;;9.30;86.20;;;;;;4841934;29;20436;-92
2023/04/25 11:49:02;;;;;;;6.00;0.70;;;9.80;85.80;;;;;;4864177;29;20421;-92
2023/04/25 11:51:28;;;;;;;4.10;0.50;;;9.20;91.20;;;;;;4848693;29;20515;-92
2023/04/25 11:53:53;;;;;;;6.33;0.50;;;10.00;80.90;;;;;;4854609;29;20520;-91
2023/04/25 11:56:20;;;;;;;6.30;0.80;;;10.20;91.60;;;;;;4858776;29;20476;-90
2023/04/25 11:58:57;;;;;;;5.97;0.70;;;10.70;95.90;;;;;;4857208;29;20425;-92
2023/04/25 12:01:33;;;;;;;4.80;0.50;;;11.10;80.30;;;;;;4874930;29;20854;-91
2023/04/25 12:04:16;;;;;;;6.78;0.60;;;11.30;75.80;;;;;;4872606;29;20444;-91
2023/04/25 12:06:43;;;;;;;4.85;0.43;;;11.30;75.90;;;;;;4873528;29;20445;-92
2023/04/25 12:09:12;;;;;;;6.82;0.63;;;11.30;90.60;;;;;;4874035;29;20429;-91
2023/04/25 12:11:43;;;;;;;4.93;0.43;;;11.10;80.00;;;;;;4875281;29;20458;-89
2023/04/25 12:14:10;;;;;;;5.18;0.40;;;10.90;82.20;;;;;;4861947;29;20426;-91
2023/04/25 12:16:43;;;;;;;4.88;0.68;;;11.20;83.70;;;;;;4859294;29;20449;-92
2023/04/25 12:19:09;;;;;;;8.00;0.93;;;12.20;92.10;;;;;;4862176;29;20781;-89
2023/04/25 12:21:35;;;;;;;5.60;0.70;;;12.30;80.50;;;;;;4875463;29;20423;-90
2023/04/25 12:24:11;;;;;;;6.30;0.80;;;12.40;69.80;;;;;;4861135;29;20423;-91
2023/04/25 12:26:53;;;;;;;5.50;0.68;;;12.20;66.70;;;;;;4861080;29;20797;-90
2023/04/25 12:29:21;;;;;;;6.75;0.70;;;12.50;70.10;;;;;;4859264;29;20450;-92
2023/04/25 12:31:46;;;;;;;5.43;0.50;;;12.50;64.20;;;;;;4861718;29;20460;-92
2023/04/25 12:34:12;;;;;;;7.07;0.82;;;11.70;59.50;;;;;;4874891;29;20469;-92
2023/04/25 12:36:38;;;;;;;5.57;0.80;;;11.10;63.00;;;;;;4861502;29;20438;-91
2023/04/25 12:39:04;;;;;;;5.30;0.77;;;10.60;64.10;;;;;;4860128;29;20429;-91
2023/04/25 12:41:30;;;;;;;6.97;0.70;;;10.30;70.70;;;;;;4860166;29;20418;-91
2023/04/25 12:43:56;;;;;;;5.63;0.87;;;10.00;74.70;;;;;;4861065;29;20508;-90
2023/04/25 12:46:22;;;;;;;4.80;0.50;;;9.90;75.20;;;;;;4859071;29;21047;-91
2023/04/25 12:48:48;;;;;;;7.28;0.77;;;10.10;85.10;;;;;;4861025;29;20419;-90
2023/04/25 12:51:14;;;;;;;5.32;0.52;;;10.20;79.20;;;;;;4874210;29;20494;-91